Main page
METAR-TAF:

METAR-TAF

Airports :

Ted Stevens Anchorage International Airport

Anchorage, Alaska, United States

latitude: 61-10-28N, longitude: 149-59-46W, elevation: 44 m

Current weather observation

The report was made 57 minutes ago, at 23:53 UTC
Wind 5 kt from the Northeast
Temperature -5°C
Humidity 73%
Pressure 1006 hPa
Visibility: 16.1 km
Few clouds at a height of 20000 ft

METAR: PANC 152353Z 05005KT 10SM FEW200 M05/M09 A2972 RMK AO2 SLP067 4/011 T10501094 11050 21078 58019

Time: 15:50 (00:50 UTC)

Forecast

The report was made 1 hour and 17 minutes ago, at 23:33 UTC
Forecast valid from 16 at 00 UTC to 17 at 06 UTC
Wind 6 kt from the North/Northeast
Visibility: 10 km
Scattered clouds at a height of 10000 ft
Broken clouds at a height of 20000 ft
From 16 at 1200 UTC
Wind 6 kt from the North/Northeast
Visibility: 10 km
Scattered clouds at a height of 4000 ft
Overcast at a height of 7000 ft
showers in vicinity

TAF: PANC 152333Z 1600/1706 03006KT P6SM SCT100 BKN200 FM161200 03006KT P6SM VCSH SCT040 OVC070

Weather observations and forecasts of more than 4000 airports (METAR and TAF reports).

The available stations are represented by yellow and red dots on the map.

Hover mouse over dot to see the name of the station.

Then click to see weather observations and forecasts.

To change the map : click on the green buttons with a black cross to zoom in, on the green button with a dash to zoom out, or on the green arrows for adjacent maps.


METAR-TAF: